sensor_id;sensor_type;location;lat;lon;timestamp;temperature;humidity
37910;DHT22;23741;49.446;8.754;2024-01-30T00:00:36;10.80;62.50
37910;DHT22;23741;49.446;8.754;2024-01-30T00:02:38;10.80;62.50
37910;DHT22;23741;49.446;8.754;2024-01-30T00:04:40;10.80;62.50
37910;DHT22;23741;49.446;8.754;2024-01-30T00:06:41;10.80;62.50
37910;DHT22;23741;49.446;8.754;2024-01-30T00:08:44;10.80;62.50
37910;DHT22;23741;49.446;8.754;2024-01-30T00:10:48;10.80;62.50
37910;DHT22;23741;49.446;8.754;2024-01-30T00:12:50;10.80;62.50
37910;DHT22;23741;49.446;8.754;2024-01-30T00:14:51;10.80;62.50
37910;DHT22;23741;49.446;8.754;2024-01-30T00:16:55;10.80;62.50
37910;DHT22;23741;49.446;8.754;2024-01-30T00:18:57;10.80;62.50
37910;DHT22;23741;49.446;8.754;2024-01-30T00:20:59;10.80;62.50
37910;DHT22;23741;49.446;8.754;2024-01-30T00:23:01;10.70;62.50
37910;DHT22;23741;49.446;8.754;2024-01-30T00:25:03;10.70;62.40
37910;DHT22;23741;49.446;8.754;2024-01-30T00:27:05;10.70;62.40
37910;DHT22;23741;49.446;8.754;2024-01-30T00:29:06;10.70;62.50
37910;DHT22;23741;49.446;8.754;2024-01-30T00:31:08;10.70;62.40
37910;DHT22;23741;49.446;8.754;2024-01-30T00:33:14;10.70;62.50
37910;DHT22;23741;49.446;8.754;2024-01-30T00:35:17;10.70;62.60
37910;DHT22;23741;49.446;8.754;2024-01-30T00:37:18;10.70;62.40
37910;DHT22;23741;49.446;8.754;2024-01-30T00:39:20;10.70;62.40
37910;DHT22;23741;49.446;8.754;2024-01-30T00:41:22;10.70;62.40
37910;DHT22;23741;49.446;8.754;2024-01-30T00:43:24;10.70;62.50
37910;DHT22;23741;49.446;8.754;2024-01-30T00:45:29;10.70;62.50
37910;DHT22;23741;49.446;8.754;2024-01-30T00:47:30;10.70;62.40
37910;DHT22;23741;49.446;8.754;2024-01-30T00:49:34;10.70;62.40
37910;DHT22;23741;49.446;8.754;2024-01-30T00:51:37;10.60;62.40
37910;DHT22;23741;49.446;8.754;2024-01-30T00:53:38;10.60;62.50
37910;DHT22;23741;49.446;8.754;2024-01-30T00:55:40;10.60;62.50
37910;DHT22;23741;49.446;8.754;2024-01-30T00:57:42;10.60;62.50
37910;DHT22;23741;49.446;8.754;2024-01-30T00:59:46;10.60;62.50
37910;DHT22;23741;49.446;8.754;2024-01-30T01:01:48;10.60;62.50
37910;DHT22;23741;49.446;8.754;2024-01-30T01:03:50;10.60;62.40
37910;DHT22;23741;49.446;8.754;2024-01-30T01:05:52;10.60;62.50
37910;DHT22;23741;49.446;8.754;2024-01-30T01:07:54;10.60;62.50
37910;DHT22;23741;49.446;8.754;2024-01-30T01:09:56;10.60;62.60
37910;DHT22;23741;49.446;8.754;2024-01-30T01:11:57;10.60;62.60
37910;DHT22;23741;49.446;8.754;2024-01-30T01:13:59;10.50;62.60
37910;DHT22;23741;49.446;8.754;2024-01-30T01:16:01;10.60;63.50
37910;DHT22;23741;49.446;8.754;2024-01-30T01:18:03;10.50;62.50
37910;DHT22;23741;49.446;8.754;2024-01-30T01:20:05;10.50;62.60
37910;DHT22;23741;49.446;8.754;2024-01-30T01:22:08;10.50;62.80
37910;DHT22;23741;49.446;8.754;2024-01-30T01:24:10;10.50;62.70
37910;DHT22;23741;49.446;8.754;2024-01-30T01:26:11;10.50;62.60
37910;DHT22;23741;49.446;8.754;2024-01-30T01:28:13;10.50;62.50
37910;DHT22;23741;49.446;8.754;2024-01-30T01:30:15;10.50;62.60
37910;DHT22;23741;49.446;8.754;2024-01-30T01:32:22;10.50;62.50
37910;DHT22;23741;49.446;8.754;2024-01-30T01:34:24;10.50;62.60
37910;DHT22;23741;49.446;8.754;2024-01-30T01:36:31;10.50;62.60
37910;DHT22;23741;49.446;8.754;2024-01-30T01:38:33;10.40;62.40
37910;DHT22;23741;49.446;8.754;2024-01-30T01:40:34;10.40;62.60
37910;DHT22;23741;49.446;8.754;2024-01-30T01:42:36;10.40;62.70
37910;DHT22;23741;49.446;8.754;2024-01-30T01:44:38;10.40;62.70
37910;DHT22;23741;49.446;8.754;2024-01-30T01:46:40;10.40;63.00
37910;DHT22;23741;49.446;8.754;2024-01-30T01:48:42;10.40;63.00
37910;DHT22;23741;49.446;8.754;2024-01-30T01:50:45;10.30;62.80
37910;DHT22;23741;49.446;8.754;2024-01-30T01:52:50;10.40;63.00
37910;DHT22;23741;49.446;8.754;2024-01-30T01:54:52;10.30;63.00
37910;DHT22;23741;49.446;8.754;2024-01-30T01:56:54;10.30;62.90
37910;DHT22;23741;49.446;8.754;2024-01-30T01:58:56;10.30;62.90
37910;DHT22;23741;49.446;8.754;2024-01-30T02:00:59;10.40;62.90
37910;DHT22;23741;49.446;8.754;2024-01-30T02:03:02;10.40;62.90
37910;DHT22;23741;49.446;8.754;2024-01-30T02:05:04;10.30;62.90
37910;DHT22;23741;49.446;8.754;2024-01-30T02:07:06;10.30;62.90
37910;DHT22;23741;49.446;8.754;2024-01-30T02:09:08;10.30;62.90
37910;DHT22;23741;49.446;8.754;2024-01-30T02:11:10;10.30;63.00
37910;DHT22;23741;49.446;8.754;2024-01-30T02:13:12;10.30;63.10
37910;DHT22;23741;49.446;8.754;2024-01-30T02:15:14;10.30;63.10
37910;DHT22;23741;49.446;8.754;2024-01-30T02:17:16;10.30;63.10
37910;DHT22;23741;49.446;8.754;2024-01-30T02:19:18;10.30;63.10
37910;DHT22;23741;49.446;8.754;2024-01-30T02:21:21;10.30;63.20
37910;DHT22;23741;49.446;8.754;2024-01-30T02:23:26;10.30;63.20
37910;DHT22;23741;49.446;8.754;2024-01-30T02:25:32;10.30;63.10
37910;DHT22;23741;49.446;8.754;2024-01-30T02:27:34;10.30;63.00
37910;DHT22;23741;49.446;8.754;2024-01-30T02:29:36;10.30;63.10
37910;DHT22;23741;49.446;8.754;2024-01-30T02:31:38;10.30;63.10
37910;DHT22;23741;49.446;8.754;2024-01-30T02:33:39;10.30;63.30
37910;DHT22;23741;49.446;8.754;2024-01-30T02:35:41;10.30;63.40
37910;DHT22;23741;49.446;8.754;2024-01-30T02:37:43;10.30;63.40
37910;DHT22;23741;49.446;8.754;2024-01-30T02:39:45;10.30;63.20
37910;DHT22;23741;49.446;8.754;2024-01-30T02:41:46;10.20;63.40
37910;DHT22;23741;49.446;8.754;2024-01-30T02:43:48;10.30;63.40
37910;DHT22;23741;49.446;8.754;2024-01-30T02:45:50;10.20;63.30
37910;DHT22;23741;49.446;8.754;2024-01-30T02:47:51;10.20;63.20
37910;DHT22;23741;49.446;8.754;2024-01-30T02:49:53;10.30;63.20
37910;DHT22;23741;49.446;8.754;2024-01-30T02:51:57;10.20;63.10
37910;DHT22;23741;49.446;8.754;2024-01-30T02:53:59;10.20;63.20
37910;DHT22;23741;49.446;8.754;2024-01-30T02:56:02;10.20;63.20
37910;DHT22;23741;49.446;8.754;2024-01-30T02:58:04;10.20;63.20
37910;DHT22;23741;49.446;8.754;2024-01-30T03:00:06;10.20;63.10
37910;DHT22;23741;49.446;8.754;2024-01-30T03:02:09;10.20;63.20
37910;DHT22;23741;49.446;8.754;2024-01-30T03:04:11;10.20;63.20
37910;DHT22;23741;49.446;8.754;2024-01-30T03:06:13;10.20;63.20
37910;DHT22;23741;49.446;8.754;2024-01-30T03:08:18;10.10;63.30
37910;DHT22;23741;49.446;8.754;2024-01-30T03:10:20;10.10;63.50
37910;DHT22;23741;49.446;8.754;2024-01-30T03:12:22;10.10;63.40
37910;DHT22;23741;49.446;8.754;2024-01-30T03:14:24;10.10;63.30
37910;DHT22;23741;49.446;8.754;2024-01-30T03:16:26;10.10;63.40
37910;DHT22;23741;49.446;8.754;2024-01-30T03:18:27;10.10;63.40
37910;DHT22;23741;49.446;8.754;2024-01-30T03:20:29;10.10;63.50
37910;DHT22;23741;49.446;8.754;2024-01-30T03:22:31;10.10;63.50
37910;DHT22;23741;49.446;8.754;2024-01-30T03:24:33;10.10;63.40
37910;DHT22;23741;49.446;8.754;2024-01-30T03:26:34;10.10;63.40
37910;DHT22;23741;49.446;8.754;2024-01-30T03:28:36;10.10;63.60
37910;DHT22;23741;49.446;8.754;2024-01-30T03:30:38;10.10;63.60
37910;DHT22;23741;49.446;8.754;2024-01-30T03:32:40;10.10;63.50
37910;DHT22;23741;49.446;8.754;2024-01-30T03:34:41;10.10;63.50
37910;DHT22;23741;49.446;8.754;2024-01-30T03:36:43;10.00;63.40
37910;DHT22;23741;49.446;8.754;2024-01-30T03:38:45;10.00;63.50
37910;DHT22;23741;49.446;8.754;2024-01-30T03:40:47;10.00;63.70
37910;DHT22;23741;49.446;8.754;2024-01-30T03:42:49;10.00;63.90
37910;DHT22;23741;49.446;8.754;2024-01-30T03:44:50;10.00;63.80
37910;DHT22;23741;49.446;8.754;2024-01-30T03:46:56;10.00;64.00
37910;DHT22;23741;49.446;8.754;2024-01-30T03:48:58;10.00;64.10
37910;DHT22;23741;49.446;8.754;2024-01-30T03:51:00;10.00;64.50
37910;DHT22;23741;49.446;8.754;2024-01-30T03:53:02;10.00;64.40
37910;DHT22;23741;49.446;8.754;2024-01-30T03:55:03;10.00;64.20
37910;DHT22;23741;49.446;8.754;2024-01-30T03:57:05;10.00;64.00
37910;DHT22;23741;49.446;8.754;2024-01-30T03:59:07;10.00;64.10
37910;DHT22;23741;49.446;8.754;2024-01-30T04:01:12;10.00;64.10
37910;DHT22;23741;49.446;8.754;2024-01-30T04:03:14;10.00;64.10
37910;DHT22;23741;49.446;8.754;2024-01-30T04:05:17;10.00;64.20
37910;DHT22;23741;49.446;8.754;2024-01-30T04:07:19;10.00;64.10
37910;DHT22;23741;49.446;8.754;2024-01-30T04:09:24;10.00;64.10
37910;DHT22;23741;49.446;8.754;2024-01-30T04:11:28;10.00;64.10
37910;DHT22;23741;49.446;8.754;2024-01-30T04:13:29;10.00;64.20
37910;DHT22;23741;49.446;8.754;2024-01-30T04:15:31;10.00;64.00
37910;DHT22;23741;49.446;8.754;2024-01-30T04:17:34;10.00;64.30
37910;DHT22;23741;49.446;8.754;2024-01-30T04:19:39;10.00;64.20
37910;DHT22;23741;49.446;8.754;2024-01-30T04:21:41;10.00;64.10
37910;DHT22;23741;49.446;8.754;2024-01-30T04:23:43;10.00;64.30
37910;DHT22;23741;49.446;8.754;2024-01-30T04:25:45;10.00;64.20
37910;DHT22;23741;49.446;8.754;2024-01-30T04:27:47;9.90;64.20
37910;DHT22;23741;49.446;8.754;2024-01-30T04:29:48;9.90;64.40
37910;DHT22;23741;49.446;8.754;2024-01-30T04:31:50;9.90;64.60
37910;DHT22;23741;49.446;8.754;2024-01-30T04:33:52;10.00;64.90
37910;DHT22;23741;49.446;8.754;2024-01-30T04:35:54;9.90;64.90
37910;DHT22;23741;49.446;8.754;2024-01-30T04:37:55;9.90;64.70
37910;DHT22;23741;49.446;8.754;2024-01-30T04:39:57;9.90;64.70
37910;DHT22;23741;49.446;8.754;2024-01-30T04:41:59;10.00;64.80
37910;DHT22;23741;49.446;8.754;2024-01-30T04:44:01;9.90;64.60
37910;DHT22;23741;49.446;8.754;2024-01-30T04:46:02;10.00;64.70
37910;DHT22;23741;49.446;8.754;2024-01-30T04:48:04;10.00;64.90
37910;DHT22;23741;49.446;8.754;2024-01-30T04:50:07;10.00;64.90
37910;DHT22;23741;49.446;8.754;2024-01-30T04:52:09;10.00;64.80
37910;DHT22;23741;49.446;8.754;2024-01-30T04:54:10;10.00;64.70
37910;DHT22;23741;49.446;8.754;2024-01-30T04:56:12;10.00;64.60
37910;DHT22;23741;49.446;8.754;2024-01-30T04:58:14;10.00;64.60
37910;DHT22;23741;49.446;8.754;2024-01-30T05:00:16;10.00;64.80
37910;DHT22;23741;49.446;8.754;2024-01-30T05:02:18;10.00;64.60
37910;DHT22;23741;49.446;8.754;2024-01-30T05:04:19;10.00;64.50
37910;DHT22;23741;49.446;8.754;2024-01-30T05:06:25;10.00;64.40
37910;DHT22;23741;49.446;8.754;2024-01-30T05:08:27;10.00;64.50
37910;DHT22;23741;49.446;8.754;2024-01-30T05:10:29;10.00;64.40
37910;DHT22;23741;49.446;8.754;2024-01-30T05:12:31;9.90;64.20
37910;DHT22;23741;49.446;8.754;2024-01-30T05:14:33;10.00;64.40
37910;DHT22;23741;49.446;8.754;2024-01-30T05:16:34;10.00;64.30
37910;DHT22;23741;49.446;8.754;2024-01-30T05:18:36;10.00;64.60
37910;DHT22;23741;49.446;8.754;2024-01-30T05:20:38;10.00;64.50
37910;DHT22;23741;49.446;8.754;2024-01-30T05:22:40;9.90;64.50
37910;DHT22;23741;49.446;8.754;2024-01-30T05:24:46;9.90;64.50
37910;DHT22;23741;49.446;8.754;2024-01-30T05:26:48;9.90;64.40
37910;DHT22;23741;49.446;8.754;2024-01-30T05:28:50;9.90;64.50
37910;DHT22;23741;49.446;8.754;2024-01-30T05:30:51;9.90;64.40
37910;DHT22;23741;49.446;8.754;2024-01-30T05:32:53;9.90;64.40
37910;DHT22;23741;49.446;8.754;2024-01-30T05:34:55;9.90;64.70
37910;DHT22;23741;49.446;8.754;2024-01-30T05:36:57;9.80;64.80
37910;DHT22;23741;49.446;8.754;2024-01-30T05:38:59;9.80;64.70
37910;DHT22;23741;49.446;8.754;2024-01-30T05:41:00;9.80;64.80
37910;DHT22;23741;49.446;8.754;2024-01-30T05:43:02;9.80;65.80
37910;DHT22;23741;49.446;8.754;2024-01-30T05:45:04;9.80;64.80
37910;DHT22;23741;49.446;8.754;2024-01-30T05:47:06;9.80;64.70
37910;DHT22;23741;49.446;8.754;2024-01-30T05:49:08;9.80;64.80
37910;DHT22;23741;49.446;8.754;2024-01-30T05:51:10;9.80;64.70
37910;DHT22;23741;49.446;8.754;2024-01-30T05:53:12;9.80;64.70
37910;DHT22;23741;49.446;8.754;2024-01-30T05:55:14;9.80;64.70
37910;DHT22;23741;49.446;8.754;2024-01-30T05:57:16;9.80;65.10
37910;DHT22;23741;49.446;8.754;2024-01-30T05:59:18;9.80;65.10
37910;DHT22;23741;49.446;8.754;2024-01-30T06:01:19;9.80;64.80
37910;DHT22;23741;49.446;8.754;2024-01-30T06:03:21;9.80;64.70
37910;DHT22;23741;49.446;8.754;2024-01-30T06:05:23;9.80;64.70
37910;DHT22;23741;49.446;8.754;2024-01-30T06:07:25;9.80;65.00
37910;DHT22;23741;49.446;8.754;2024-01-30T06:09:27;9.80;64.80
37910;DHT22;23741;49.446;8.754;2024-01-30T06:11:30;9.80;65.30
37910;DHT22;23741;49.446;8.754;2024-01-30T06:13:31;9.80;65.20
37910;DHT22;23741;49.446;8.754;2024-01-30T06:15:34;9.80;65.30
37910;DHT22;23741;49.446;8.754;2024-01-30T06:17:36;9.80;65.10
37910;DHT22;23741;49.446;8.754;2024-01-30T06:19:38;9.80;65.20
37910;DHT22;23741;49.446;8.754;2024-01-30T06:21:43;9.80;65.20
37910;DHT22;23741;49.446;8.754;2024-01-30T06:23:51;9.80;65.20
37910;DHT22;23741;49.446;8.754;2024-01-30T06:25:53;9.80;65.10
37910;DHT22;23741;49.446;8.754;2024-01-30T06:27:55;9.80;65.10
37910;DHT22;23741;49.446;8.754;2024-01-30T06:29:57;9.80;65.10
37910;DHT22;23741;49.446;8.754;2024-01-30T06:31:59;9.80;65.10
37910;DHT22;23741;49.446;8.754;2024-01-30T06:34:00;9.80;64.90
37910;DHT22;23741;49.446;8.754;2024-01-30T06:36:02;9.80;65.10
37910;DHT22;23741;49.446;8.754;2024-01-30T06:38:04;9.80;65.10
37910;DHT22;23741;49.446;8.754;2024-01-30T06:40:06;9.80;65.20
37910;DHT22;23741;49.446;8.754;2024-01-30T06:42:08;9.80;65.10
37910;DHT22;23741;49.446;8.754;2024-01-30T06:44:10;9.80;65.10
37910;DHT22;23741;49.446;8.754;2024-01-30T06:46:11;9.80;65.10
37910;DHT22;23741;49.446;8.754;2024-01-30T06:48:14;9.80;65.10
37910;DHT22;23741;49.446;8.754;2024-01-30T06:50:16;9.80;65.10
37910;DHT22;23741;49.446;8.754;2024-01-30T06:52:19;9.80;65.00
37910;DHT22;23741;49.446;8.754;2024-01-30T06:54:21;9.80;65.10
37910;DHT22;23741;49.446;8.754;2024-01-30T06:56:22;9.80;65.20
37910;DHT22;23741;49.446;8.754;2024-01-30T06:58:24;9.80;65.40
37910;DHT22;23741;49.446;8.754;2024-01-30T07:00:26;9.80;65.20
37910;DHT22;23741;49.446;8.754;2024-01-30T07:02:28;9.80;65.10
37910;DHT22;23741;49.446;8.754;2024-01-30T07:04:30;9.80;65.00
37910;DHT22;23741;49.446;8.754;2024-01-30T07:06:33;9.80;64.80
37910;DHT22;23741;49.446;8.754;2024-01-30T07:08:35;9.80;64.80
37910;DHT22;23741;49.446;8.754;2024-01-30T07:10:37;9.80;64.80
37910;DHT22;23741;49.446;8.754;2024-01-30T07:12:39;9.80;65.00
37910;DHT22;23741;49.446;8.754;2024-01-30T07:14:41;9.80;65.10
37910;DHT22;23741;49.446;8.754;2024-01-30T07:16:43;9.80;64.90
37910;DHT22;23741;49.446;8.754;2024-01-30T07:18:45;9.70;64.70
37910;DHT22;23741;49.446;8.754;2024-01-30T07:20:47;9.80;64.80
37910;DHT22;23741;49.446;8.754;2024-01-30T07:22:49;9.70;64.70
37910;DHT22;23741;49.446;8.754;2024-01-30T07:24:51;9.70;64.70
37910;DHT22;23741;49.446;8.754;2024-01-30T07:26:53;9.70;65.00
37910;DHT22;23741;49.446;8.754;2024-01-30T07:28:55;9.70;64.90
37910;DHT22;23741;49.446;8.754;2024-01-30T07:30:57;9.70;64.90
37910;DHT22;23741;49.446;8.754;2024-01-30T07:32:59;9.70;64.90
37910;DHT22;23741;49.446;8.754;2024-01-30T07:35:01;9.70;64.90
37910;DHT22;23741;49.446;8.754;2024-01-30T07:37:09;9.70;64.80
37910;DHT22;23741;49.446;8.754;2024-01-30T07:39:12;9.70;64.90
37910;DHT22;23741;49.446;8.754;2024-01-30T07:41:14;9.70;65.10
37910;DHT22;23741;49.446;8.754;2024-01-30T07:43:15;9.70;65.00
37910;DHT22;23741;49.446;8.754;2024-01-30T07:45:17;9.70;65.00
37910;DHT22;23741;49.446;8.754;2024-01-30T07:47:23;9.70;65.00
37910;DHT22;23741;49.446;8.754;2024-01-30T07:49:25;9.70;65.20
37910;DHT22;23741;49.446;8.754;2024-01-30T07:51:27;9.60;65.40
37910;DHT22;23741;49.446;8.754;2024-01-30T07:53:30;9.70;65.40
37910;DHT22;23741;49.446;8.754;2024-01-30T07:55:32;9.70;65.30
37910;DHT22;23741;49.446;8.754;2024-01-30T07:57:34;9.70;65.20
37910;DHT22;23741;49.446;8.754;2024-01-30T07:59:36;9.70;65.20
37910;DHT22;23741;49.446;8.754;2024-01-30T08:01:38;9.70;65.20
37910;DHT22;23741;49.446;8.754;2024-01-30T08:03:40;9.70;65.60
37910;DHT22;23741;49.446;8.754;2024-01-30T08:05:43;9.70;65.40
37910;DHT22;23741;49.446;8.754;2024-01-30T08:07:45;9.70;65.40
37910;DHT22;23741;49.446;8.754;2024-01-30T08:09:47;9.70;65.60
37910;DHT22;23741;49.446;8.754;2024-01-30T08:11:49;9.80;65.70
37910;DHT22;23741;49.446;8.754;2024-01-30T08:13:52;9.80;65.80
37910;DHT22;23741;49.446;8.754;2024-01-30T08:15:53;9.80;65.70
37910;DHT22;23741;49.446;8.754;2024-01-30T08:17:55;9.80;65.90
37910;DHT22;23741;49.446;8.754;2024-01-30T08:19:59;9.80;65.70
37910;DHT22;23741;49.446;8.754;2024-01-30T08:22:02;9.80;65.70
37910;DHT22;23741;49.446;8.754;2024-01-30T08:24:04;9.90;65.90
37910;DHT22;23741;49.446;8.754;2024-01-30T08:26:06;9.90;65.70
37910;DHT22;23741;49.446;8.754;2024-01-30T08:28:08;9.90;65.90
37910;DHT22;23741;49.446;8.754;2024-01-30T08:30:10;9.90;65.90
37910;DHT22;23741;49.446;8.754;2024-01-30T08:32:11;9.90;65.90
37910;DHT22;23741;49.446;8.754;2024-01-30T08:34:13;10.00;65.80
37910;DHT22;23741;49.446;8.754;2024-01-30T08:36:16;10.00;65.80
37910;DHT22;23741;49.446;8.754;2024-01-30T08:38:18;10.00;66.00
37910;DHT22;23741;49.446;8.754;2024-01-30T08:40:20;10.00;65.90
37910;DHT22;23741;49.446;8.754;2024-01-30T08:42:22;10.00;66.20
37910;DHT22;23741;49.446;8.754;2024-01-30T08:44:24;10.10;66.20
37910;DHT22;23741;49.446;8.754;2024-01-30T08:46:26;10.10;66.50
37910;DHT22;23741;49.446;8.754;2024-01-30T08:48:28;10.10;66.50
37910;DHT22;23741;49.446;8.754;2024-01-30T08:50:30;10.20;66.30
37910;DHT22;23741;49.446;8.754;2024-01-30T08:52:32;10.20;66.30
37910;DHT22;23741;49.446;8.754;2024-01-30T08:54:35;10.20;66.10
37910;DHT22;23741;49.446;8.754;2024-01-30T08:56:37;10.20;65.90
37910;DHT22;23741;49.446;8.754;2024-01-30T08:58:39;10.30;66.00
37910;DHT22;23741;49.446;8.754;2024-01-30T09:00:41;10.30;66.00
37910;DHT22;23741;49.446;8.754;2024-01-30T09:02:43;10.30;66.10
37910;DHT22;23741;49.446;8.754;2024-01-30T09:04:45;10.30;66.00
37910;DHT22;23741;49.446;8.754;2024-01-30T09:06:47;10.30;66.00
37910;DHT22;23741;49.446;8.754;2024-01-30T09:08:49;10.40;66.30
37910;DHT22;23741;49.446;8.754;2024-01-30T09:10:51;10.40;66.40
37910;DHT22;23741;49.446;8.754;2024-01-30T09:12:53;10.40;66.40
37910;DHT22;23741;49.446;8.754;2024-01-30T09:14:55;10.40;66.20
37910;DHT22;23741;49.446;8.754;2024-01-30T09:16:57;10.50;66.10
37910;DHT22;23741;49.446;8.754;2024-01-30T09:18:59;10.50;66.20
37910;DHT22;23741;49.446;8.754;2024-01-30T09:21:01;10.60;66.40
37910;DHT22;23741;49.446;8.754;2024-01-30T09:23:03;10.60;66.50
37910;DHT22;23741;49.446;8.754;2024-01-30T09:25:05;10.70;66.30
37910;DHT22;23741;49.446;8.754;2024-01-30T09:27:07;10.70;66.20
37910;DHT22;23741;49.446;8.754;2024-01-30T09:29:09;10.80;66.20
37910;DHT22;23741;49.446;8.754;2024-01-30T09:31:11;10.80;66.30
37910;DHT22;23741;49.446;8.754;2024-01-30T09:33:14;10.80;66.30
37910;DHT22;23741;49.446;8.754;2024-01-30T09:35:16;10.80;66.30
37910;DHT22;23741;49.446;8.754;2024-01-30T09:37:18;10.90;66.40
37910;DHT22;23741;49.446;8.754;2024-01-30T09:39:20;10.90;66.10
37910;DHT22;23741;49.446;8.754;2024-01-30T09:41:23;11.00;66.20
37910;DHT22;23741;49.446;8.754;2024-01-30T09:43:25;11.00;66.20
37910;DHT22;23741;49.446;8.754;2024-01-30T09:45:29;11.00;66.40
37910;DHT22;23741;49.446;8.754;2024-01-30T09:47:40;11.10;66.30
37910;DHT22;23741;49.446;8.754;2024-01-30T09:49:46;11.10;66.10
37910;DHT22;23741;49.446;8.754;2024-01-30T09:51:48;11.10;65.80
37910;DHT22;23741;49.446;8.754;2024-01-30T09:53:51;11.10;65.50
37910;DHT22;23741;49.446;8.754;2024-01-30T09:55:53;11.10;65.30
37910;DHT22;23741;49.446;8.754;2024-01-30T09:57:55;11.10;65.20
37910;DHT22;23741;49.446;8.754;2024-01-30T09:59:57;11.10;65.10
37910;DHT22;23741;49.446;8.754;2024-01-30T10:02:00;11.10;65.00
37910;DHT22;23741;49.446;8.754;2024-01-30T10:04:03;11.10;64.80
37910;DHT22;23741;49.446;8.754;2024-01-30T10:06:05;11.10;64.80
37910;DHT22;23741;49.446;8.754;2024-01-30T10:08:07;11.10;64.60
37910;DHT22;23741;49.446;8.754;2024-01-30T10:10:10;11.10;64.30
37910;DHT22;23741;49.446;8.754;2024-01-30T10:12:12;11.10;64.40
37910;DHT22;23741;49.446;8.754;2024-01-30T10:14:15;11.10;64.40
37910;DHT22;23741;49.446;8.754;2024-01-30T10:16:17;11.10;64.60
37910;DHT22;23741;49.446;8.754;2024-01-30T10:18:19;11.10;64.60
37910;DHT22;23741;49.446;8.754;2024-01-30T10:20:20;11.10;64.70
37910;DHT22;23741;49.446;8.754;2024-01-30T10:22:24;11.10;64.70
37910;DHT22;23741;49.446;8.754;2024-01-30T10:24:26;11.20;64.60
37910;DHT22;23741;49.446;8.754;2024-01-30T10:26:28;11.20;64.60
37910;DHT22;23741;49.446;8.754;2024-01-30T10:28:30;11.20;64.50
37910;DHT22;23741;49.446;8.754;2024-01-30T10:30:32;11.20;64.50
37910;DHT22;23741;49.446;8.754;2024-01-30T10:32:34;11.20;64.30
37910;DHT22;23741;49.446;8.754;2024-01-30T10:34:36;11.20;64.20
37910;DHT22;23741;49.446;8.754;2024-01-30T10:36:41;11.30;64.30
37910;DHT22;23741;49.446;8.754;2024-01-30T10:38:44;11.30;64.20
37910;DHT22;23741;49.446;8.754;2024-01-30T10:40:48;11.30;64.20
37910;DHT22;23741;49.446;8.754;2024-01-30T10:42:54;11.30;64.20
37910;DHT22;23741;49.446;8.754;2024-01-30T10:45:07;11.30;64.20
37910;DHT22;23741;49.446;8.754;2024-01-30T10:47:15;11.30;64.20
37910;DHT22;23741;49.446;8.754;2024-01-30T10:49:18;11.40;64.40
37910;DHT22;23741;49.446;8.754;2024-01-30T10:51:22;11.40;64.50
37910;DHT22;23741;49.446;8.754;2024-01-30T10:53:25;11.40;64.40
37910;DHT22;23741;49.446;8.754;2024-01-30T10:55:28;11.50;64.40
37910;DHT22;23741;49.446;8.754;2024-01-30T10:57:30;11.50;64.40
37910;DHT22;23741;49.446;8.754;2024-01-30T10:59:33;11.50;64.40
37910;DHT22;23741;49.446;8.754;2024-01-30T11:01:35;11.60;64.30
37910;DHT22;23741;49.446;8.754;2024-01-30T11:03:37;11.60;64.20
37910;DHT22;23741;49.446;8.754;2024-01-30T11:05:42;11.60;64.20
37910;DHT22;23741;49.446;8.754;2024-01-30T11:07:44;11.70;64.10
37910;DHT22;23741;49.446;8.754;2024-01-30T11:11:58;11.70;63.80
37910;DHT22;23741;49.446;8.754;2024-01-30T11:14:03;11.70;63.80
37910;DHT22;23741;49.446;8.754;2024-01-30T11:16:05;11.80;64.00
37910;DHT22;23741;49.446;8.754;2024-01-30T11:18:07;11.80;63.90
37910;DHT22;23741;49.446;8.754;2024-01-30T11:20:09;11.80;63.80
37910;DHT22;23741;49.446;8.754;2024-01-30T11:22:11;11.80;63.80
37910;DHT22;23741;49.446;8.754;2024-01-30T11:24:14;11.90;63.90
37910;DHT22;23741;49.446;8.754;2024-01-30T11:26:16;11.90;63.70
37910;DHT22;23741;49.446;8.754;2024-01-30T11:28:19;12.00;63.80
37910;DHT22;23741;49.446;8.754;2024-01-30T11:32:27;12.00;63.50
37910;DHT22;23741;49.446;8.754;2024-01-30T11:34:29;12.00;63.40
37910;DHT22;23741;49.446;8.754;2024-01-30T11:36:31;12.10;63.60
37910;DHT22;23741;49.446;8.754;2024-01-30T11:38:35;12.10;63.40
37910;DHT22;23741;49.446;8.754;2024-01-30T11:40:38;12.20;63.40
37910;DHT22;23741;49.446;8.754;2024-01-30T11:42:40;12.20;63.20
37910;DHT22;23741;49.446;8.754;2024-01-30T11:44:46;12.20;63.20
37910;DHT22;23741;49.446;8.754;2024-01-30T11:46:51;12.20;63.20
37910;DHT22;23741;49.446;8.754;2024-01-30T11:48:53;12.30;63.00
37910;DHT22;23741;49.446;8.754;2024-01-30T11:50:55;12.30;63.10
37910;DHT22;23741;49.446;8.754;2024-01-30T11:52:57;12.30;62.90
37910;DHT22;23741;49.446;8.754;2024-01-30T11:54:59;12.40;63.00
37910;DHT22;23741;49.446;8.754;2024-01-30T11:57:01;12.40;62.70
37910;DHT22;23741;49.446;8.754;2024-01-30T11:59:03;12.40;62.50
37910;DHT22;23741;49.446;8.754;2024-01-30T12:01:06;12.40;62.60
37910;DHT22;23741;49.446;8.754;2024-01-30T12:03:08;12.40;62.50
37910;DHT22;23741;49.446;8.754;2024-01-30T12:05:15;12.50;62.60
37910;DHT22;23741;49.446;8.754;2024-01-30T12:07:20;12.50;62.40
37910;DHT22;23741;49.446;8.754;2024-01-30T12:09:23;12.50;62.00
37910;DHT22;23741;49.446;8.754;2024-01-30T12:11:25;12.60;62.40
37910;DHT22;23741;49.446;8.754;2024-01-30T12:13:28;12.60;62.20
37910;DHT22;23741;49.446;8.754;2024-01-30T12:15:34;12.60;62.50
37910;DHT22;23741;49.446;8.754;2024-01-30T12:17:36;12.70;62.40
37910;DHT22;23741;49.446;8.754;2024-01-30T12:19:38;12.70;62.20
37910;DHT22;23741;49.446;8.754;2024-01-30T12:21:40;12.70;62.30
37910;DHT22;23741;49.446;8.754;2024-01-30T12:23:41;12.70;62.20
37910;DHT22;23741;49.446;8.754;2024-01-30T12:25:43;12.80;62.10
37910;DHT22;23741;49.446;8.754;2024-01-30T12:27:54;12.80;62.20
37910;DHT22;23741;49.446;8.754;2024-01-30T12:29:57;12.80;62.20
37910;DHT22;23741;49.446;8.754;2024-01-30T12:32:02;12.90;62.10
37910;DHT22;23741;49.446;8.754;2024-01-30T12:34:07;12.90;62.20
37910;DHT22;23741;49.446;8.754;2024-01-30T12:36:09;12.90;62.20
37910;DHT22;23741;49.446;8.754;2024-01-30T12:38:13;12.90;62.00
37910;DHT22;23741;49.446;8.754;2024-01-30T12:40:15;13.00;62.20
37910;DHT22;23741;49.446;8.754;2024-01-30T12:42:18;13.00;62.10
37910;DHT22;23741;49.446;8.754;2024-01-30T12:44:21;13.00;62.10
37910;DHT22;23741;49.446;8.754;2024-01-30T12:46:28;13.10;62.10
37910;DHT22;23741;49.446;8.754;2024-01-30T12:48:31;13.10;62.00
37910;DHT22;23741;49.446;8.754;2024-01-30T12:50:33;13.10;62.10
37910;DHT22;23741;49.446;8.754;2024-01-30T12:52:35;13.10;61.90
37910;DHT22;23741;49.446;8.754;2024-01-30T12:54:37;13.10;61.80
37910;DHT22;23741;49.446;8.754;2024-01-30T12:56:39;13.10;61.80
37910;DHT22;23741;49.446;8.754;2024-01-30T12:58:41;13.20;61.90
37910;DHT22;23741;49.446;8.754;2024-01-30T13:00:47;13.20;61.80